Time;durP1;ratioP1;P1;durP2;ratioP2;P2;SDS_P1;SDS_P2;PMS_P1;PMS_P2;Temp;Humidity;BMP_temperature;BMP_pressure;BME280_temperature;BME280_humidity;BME280_pressure;Samples;Min_cycle;Max_cycle;Signal;HPM_P1;HPM_P2
2022/11/23 00:01:15;;;;;;;67.40;25.20;;;;;;;2.71;83.69;99325.14;126777;1290;99144;-77
2022/11/23 00:04:24;;;;;;;53.20;21.30;;;;;;;2.72;83.50;99323.70;126587;1281;99153;-77
2022/11/23 00:07:27;;;;;;;64.00;26.50;;;;;;;2.75;83.84;99323.23;126604;1280;98073;-77
2022/11/23 00:10:29;;;;;;;68.70;26.30;;;;;;;2.73;83.65;99328.99;126596;1272;99186;-77
2022/11/23 00:13:34;;;;;;;63.50;25.30;;;;;;;2.74;83.74;99331.02;126606;1288;98438;-79
2022/11/23 00:16:36;;;;;;;65.10;26.00;;;;;;;2.73;83.71;99331.65;126657;1291;99036;-77
2022/11/23 00:19:39;;;;;;;62.00;26.60;;;;;;;2.71;83.59;99326.95;126610;1281;98092;-77
2022/11/23 00:22:42;;;;;;;74.30;26.40;;;;;;;2.69;83.83;99321.41;126724;1296;99146;-76
2022/11/23 00:25:45;;;;;;;64.80;25.30;;;;;;;2.69;83.74;99317.79;126700;1281;99128;-75
2022/11/23 00:28:48;;;;;;;55.50;23.00;;;;;;;2.70;83.76;99318.52;126802;1282;99036;-78
2022/11/23 00:31:51;;;;;;;64.70;25.50;;;;;;;2.74;83.80;99315.77;126601;1281;98042;-77
2022/11/23 00:34:53;;;;;;;59.50;23.80;;;;;;;2.80;83.67;99317.76;126425;1284;98058;-77
2022/11/23 00:37:56;;;;;;;64.30;26.00;;;;;;;2.83;83.82;99317.58;126614;1281;98757;-77
2022/11/23 00:41:00;;;;;;;61.20;25.50;;;;;;;2.84;83.91;99320.09;126535;1274;99156;-77
2022/11/23 00:44:04;;;;;;;62.40;26.10;;;;;;;2.82;83.70;99325.86;126529;1280;98031;-79
2022/11/23 00:47:06;;;;;;;61.60;24.60;;;;;;;2.74;84.02;99326.30;126509;1281;98019;-78
2022/11/23 00:50:10;;;;;;;64.50;25.70;;;;;;;2.69;83.84;99333.24;126642;1283;98418;-76
2022/11/23 00:53:13;;;;;;;63.20;23.70;;;;;;;2.67;83.90;99330.95;126562;1288;97999;-77
2022/11/23 00:56:17;;;;;;;54.10;22.40;;;;;;;2.70;83.73;99329.13;126597;1281;98079;-76
2022/11/23 00:59:20;;;;;;;58.90;24.40;;;;;;;2.75;84.05;99322.73;126525;1298;97976;-77
2022/11/23 01:02:22;;;;;;;64.90;25.20;;;;;;;2.82;83.97;99320.73;126577;1280;99128;-77
2022/11/23 01:05:25;;;;;;;62.30;25.00;;;;;;;2.84;83.94;99322.33;126474;1282;99147;-77
2022/11/23 01:08:28;;;;;;;58.90;24.60;;;;;;;2.81;84.22;99327.53;126534;1281;98390;-76
2022/11/23 01:11:32;;;;;;;58.70;25.20;;;;;;;2.78;83.93;99339.88;126658;1276;98092;-77
2022/11/23 01:14:36;;;;;;;61.70;24.70;;;;;;;2.78;84.21;99343.64;126577;1280;98053;-76
2022/11/23 01:17:40;;;;;;;63.90;25.70;;;;;;;2.77;84.12;99341.55;126775;1287;99141;-78
2022/11/23 01:20:44;;;;;;;60.30;23.00;;;;;;;2.75;84.14;99346.42;126648;1282;98739;-78
2022/11/23 01:23:47;;;;;;;49.50;22.10;;;;;;;2.74;84.04;99343.71;126539;1286;141196;-77
2022/11/23 01:26:52;;;;;;;58.60;25.00;;;;;;;2.74;84.20;99339.29;126649;1286;98146;-77
2022/11/23 01:29:55;;;;;;;58.80;25.70;;;;;;;2.77;84.36;99339.98;126903;1288;98018;-77
2022/11/23 01:32:58;;;;;;;53.50;24.10;;;;;;;2.80;84.19;99342.41;126695;1293;99142;-78
2022/11/23 01:36:07;;;;;;;53.80;23.80;;;;;;;2.80;84.05;99345.86;126689;1291;98105;-78
2022/11/23 01:39:11;;;;;;;54.90;23.80;;;;;;;2.80;84.11;99346.77;126766;1282;98086;-77
2022/11/23 01:42:13;;;;;;;57.30;23.90;;;;;;;2.76;84.20;99340.77;126758;1281;98007;-78
2022/11/23 01:45:36;;;;;;;61.70;24.00;;;;;;;2.72;84.06;99344.21;126858;1277;98766;-77
2022/11/23 01:48:43;;;;;;;54.60;22.20;;;;;;;2.70;84.36;99351.61;126715;1282;98370;-78
2022/11/23 01:51:50;;;;;;;53.30;21.40;;;;;;;2.72;84.31;99347.73;126686;1274;98094;-77
2022/11/23 01:54:56;;;;;;;53.00;21.80;;;;;;;2.75;84.39;99345.36;126678;1286;99005;-78
2022/11/23 01:58:00;;;;;;;52.30;22.50;;;;;;;2.81;84.31;99347.08;126780;1282;97981;-78
2022/11/23 02:01:02;;;;;;;55.80;21.90;;;;;;;2.85;84.28;99345.11;126881;1286;98871;-78
2022/11/23 02:04:09;;;;;;;50.50;21.90;;;;;;;2.88;84.26;99347.48;126686;1289;99180;-77
2022/11/23 02:07:15;;;;;;;57.40;23.20;;;;;;;2.88;84.16;99344.48;126801;1288;99156;-78
2022/11/23 02:10:22;;;;;;;57.80;23.10;;;;;;;2.87;84.32;99345.52;126574;1288;98750;-75
2022/11/23 02:13:26;;;;;;;56.50;22.90;;;;;;;2.81;84.18;99351.27;126583;1288;98080;-76
2022/11/23 02:16:30;;;;;;;57.20;22.80;;;;;;;2.75;84.25;99352.38;126540;1281;98053;-77
2022/11/23 02:19:42;;;;;;;58.00;22.40;;;;;;;2.75;84.39;99355.90;126523;1288;98130;-77
2022/11/23 02:22:56;;;;;;;54.00;21.40;;;;;;;2.80;84.49;99352.89;126580;1280;99029;-76
2022/11/23 02:26:04;;;;;;;54.40;21.50;;;;;;;2.85;84.40;99356.69;126606;1288;98056;-77
2022/11/23 02:29:13;;;;;;;52.50;21.40;;;;;;;2.86;84.48;99355.36;126733;1288;99033;-77
2022/11/23 02:32:21;;;;;;;52.40;21.60;;;;;;;2.86;84.34;99353.29;126553;1288;99150;-77
2022/11/23 02:35:24;;;;;;;54.60;22.10;;;;;;;2.82;84.58;99347.69;126534;1289;98723;-77
2022/11/23 02:38:31;;;;;;;53.70;22.70;;;;;;;2.78;84.26;99349.42;126580;1282;97996;-78
2022/11/23 02:41:38;;;;;;;62.90;22.70;;;;;;;2.75;84.43;99344.88;126557;1281;98841;-77
2022/11/23 02:44:47;;;;;;;57.80;22.40;;;;;;;2.73;84.52;99342.69;126709;1289;98281;-78
2022/11/23 02:47:50;;;;;;;48.10;18.60;;;;;;;2.71;84.61;99338.84;126716;1278;98515;-77
2022/11/23 02:50:53;;;;;;;57.80;21.70;;;;;;;2.76;84.64;99338.48;126631;1288;98080;-78
2022/11/23 02:53:55;;;;;;;47.90;19.70;;;;;;;2.81;84.68;99338.98;126672;1277;99003;-77
2022/11/23 02:56:58;;;;;;;48.40;20.90;;;;;;;2.83;84.64;99344.61;126748;1279;98106;-77
2022/11/23 03:00:01;;;;;;;52.90;21.30;;;;;;;2.83;84.66;99349.81;126630;1281;98866;-77
2022/11/23 03:03:05;;;;;;;54.00;20.20;;;;;;;2.80;84.57;99351.66;126681;1281;99102;-75
2022/11/23 03:06:09;;;;;;;51.30;19.50;;;;;;;2.76;84.50;99351.27;126842;1289;97986;-74
2022/11/23 03:09:12;;;;;;;53.40;19.30;;;;;;;2.71;84.39;99349.20;126629;1279;97994;-74
2022/11/23 03:12:15;;;;;;;54.20;20.40;;;;;;;2.68;84.68;99356.83;126631;1272;99061;-74
2022/11/23 03:15:18;;;;;;;48.50;20.50;;;;;;;2.68;84.58;99361.42;126723;1286;98487;-75
2022/11/23 03:18:21;;;;;;;48.00;20.90;;;;;;;2.71;84.63;99360.64;126741;1281;97988;-75
2022/11/23 03:21:23;;;;;;;49.50;18.70;;;;;;;2.75;84.69;99367.52;126771;1279;99198;-74
2022/11/23 03:24:26;;;;;;;43.40;18.60;;;;;;;2.78;84.61;99363.98;126520;1275;98331;-74
2022/11/23 03:27:32;;;;;;;46.50;18.80;;;;;;;2.78;84.51;99364.48;126708;1283;99058;-76
2022/11/23 03:30:35;;;;;;;47.70;19.50;;;;;;;2.74;84.47;99363.69;126624;1277;99142;-76
2022/11/23 03:33:39;;;;;;;45.60;19.30;;;;;;;2.71;84.41;99365.91;126688;1281;99256;-75
2022/11/23 03:36:42;;;;;;;48.50;19.50;;;;;;;2.67;84.45;99365.39;126684;1281;98748;-76
2022/11/23 03:39:45;;;;;;;45.90;17.20;;;;;;;2.63;84.50;99363.19;126593;1290;99021;-76
2022/11/23 03:43:06;;;;;;;43.30;17.10;;;;;;;2.65;84.71;99362.52;126579;1280;98012;-76
2022/11/23 03:46:09;;;;;;;44.00;17.30;;;;;;;2.68;84.56;99360.32;126655;1281;99220;-75
2022/11/23 03:49:11;;;;;;;42.20;18.70;;;;;;;2.72;84.67;99359.98;126615;1274;101531;-75
2022/11/23 03:52:14;;;;;;;37.50;16.10;;;;;;;2.74;84.53;99357.59;126650;1282;98020;-78
2022/11/23 03:55:18;;;;;;;44.90;19.10;;;;;;;2.71;84.31;99350.98;126831;1288;99059;-76
2022/11/23 03:58:21;;;;;;;47.20;21.10;;;;;;;2.69;84.48;99348.66;126578;1274;99166;-76
2022/11/23 04:01:25;;;;;;;49.00;21.30;;;;;;;2.67;84.61;99357.08;126708;1274;99032;-75
2022/11/23 04:04:35;;;;;;;48.50;20.60;;;;;;;2.65;84.80;99355.35;126348;1298;99147;-76
2022/11/23 04:07:49;;;;;;;50.90;20.80;;;;;;;2.60;84.54;99355.55;128117;1291;99073;-74
2022/11/23 04:10:56;;;;;;;42.20;16.50;;;;;;;2.61;84.87;99357.21;126903;1297;98076;-74
2022/11/23 04:14:15;;;;;;;40.60;16.50;;;;;;;2.64;84.66;99362.42;126558;1288;99082;-75
2022/11/23 04:17:23;;;;;;;40.60;17.10;;;;;;;2.69;84.66;99364.52;126510;1280;99135;-76
2022/11/23 04:20:26;;;;;;;38.00;17.10;;;;;;;2.69;84.63;99366.74;126589;1281;98022;-75
2022/11/23 04:23:30;;;;;;;41.20;16.40;;;;;;;2.70;84.51;99365.49;126744;1274;98001;-76
2022/11/23 04:26:33;;;;;;;43.20;18.70;;;;;;;2.71;84.43;99364.85;126780;1273;98088;-76
2022/11/23 04:29:36;;;;;;;42.00;18.90;;;;;;;2.68;84.60;99365.75;126902;1280;99139;-75
2022/11/23 04:32:38;;;;;;;44.90;18.50;;;;;;;2.65;84.64;99363.96;126658;1284;99071;-75
2022/11/23 04:35:41;;;;;;;47.90;18.90;;;;;;;2.64;84.71;99364.73;126696;1278;99138;-76
2022/11/23 04:38:44;;;;;;;39.10;16.40;;;;;;;2.66;84.74;99362.80;126681;1275;98072;-75
2022/11/23 04:41:50;;;;;;;47.20;20.20;;;;;;;2.71;84.73;99359.75;126655;1280;97962;-75
2022/11/23 04:44:56;;;;;;;46.20;21.20;;;;;;;2.78;84.61;99359.75;126653;1289;98778;-75
2022/11/23 04:47:59;;;;;;;45.40;19.70;;;;;;;2.81;84.82;99358.95;126659;1284;97988;-76
2022/11/23 04:51:01;;;;;;;48.60;21.70;;;;;;;2.82;84.60;99356.79;126557;1274;98044;-75
2022/11/23 04:54:09;;;;;;;39.80;17.50;;;;;;;2.81;84.39;99355.48;126622;1289;98079;-75
2022/11/23 04:57:18;;;;;;;38.10;16.40;;;;;;;2.77;84.45;99355.80;126630;1280;98659;-75
2022/11/23 05:00:22;;;;;;;38.60;16.80;;;;;;;2.71;84.58;99354.36;126617;1283;98016;-75
2022/11/23 05:03:25;;;;;;;37.10;16.90;;;;;;;2.63;84.54;99357.80;126552;1297;98045;-75
2022/11/23 05:06:28;;;;;;;35.20;15.90;;;;;;;2.62;84.63;99359.79;126589;1283;98097;-75
2022/11/23 05:09:32;;;;;;;40.40;17.70;;;;;;;2.67;84.62;99366.94;126558;1299;98034;-75
2022/11/23 05:12:45;;;;;;;38.10;17.50;;;;;;;2.71;84.64;99361.91;126576;1274;98009;-75
2022/11/23 05:15:47;;;;;;;39.10;17.80;;;;;;;2.71;84.65;99361.37;126534;1280;99160;-74
2022/11/23 05:18:54;;;;;;;39.00;17.60;;;;;;;2.69;84.29;99364.48;126517;1274;98090;-74
2022/11/23 05:21:57;;;;;;;35.40;16.10;;;;;;;2.63;84.25;99364.94;126563;1283;98194;-75
2022/11/23 05:25:00;;;;;;;38.60;17.80;;;;;;;2.60;84.39;99365.73;126569;1283;98070;-76
2022/11/23 05:28:03;;;;;;;37.30;15.90;;;;;;;2.55;84.61;99375.98;126615;1282;99049;-74
2022/11/23 05:31:06;;;;;;;42.40;20.50;;;;;;;2.51;84.66;99381.42;126595;1281;99087;-75
2022/11/23 05:34:09;;;;;;;33.10;14.50;;;;;;;2.51;84.56;99380.19;126642;1283;99142;-75
2022/11/23 05:37:18;;;;;;;36.50;16.50;;;;;;;2.54;84.67;99372.58;126696;1287;99100;-75
2022/11/23 05:40:34;;;;;;;33.60;15.00;;;;;;;2.56;84.42;99378.55;126925;1281;98078;-75
2022/11/23 05:43:42;;;;;;;34.80;15.10;;;;;;;2.53;84.28;99375.07;126630;1283;98109;-75
2022/11/23 05:46:46;;;;;;;33.00;16.10;;;;;;;2.51;84.26;99370.73;126540;1281;97993;-75
2022/11/23 05:49:49;;;;;;;33.30;15.80;;;;;;;2.50;84.40;99367.39;126878;1280;99144;-75
2022/11/23 05:52:56;;;;;;;38.40;18.20;;;;;;;2.50;84.33;99367.75;126579;1283;99664;-76
2022/11/23 05:56:00;;;;;;;42.30;17.80;;;;;;;2.47;84.44;99368.73;126562;1280;98749;-75
2022/11/23 05:59:04;;;;;;;39.60;16.90;;;;;;;2.44;84.41;99371.06;126679;1280;98007;-75
2022/11/23 06:02:10;;;;;;;33.00;16.50;;;;;;;2.48;84.39;99373.36;126573;1297;98008;-75
2022/11/23 06:05:13;;;;;;;35.90;16.80;;;;;;;2.53;84.43;99368.93;126475;1274;99253;-75
2022/11/23 06:08:22;;;;;;;33.80;16.20;;;;;;;2.56;84.39;99370.63;126703;1281;98021;-76
2022/11/23 06:11:24;;;;;;;36.20;17.50;;;;;;;2.58;84.61;99372.92;126497;1282;98752;-77
2022/11/23 06:14:30;;;;;;;40.10;18.20;;;;;;;2.55;84.46;99372.08;126609;1274;98077;-76
2022/11/23 06:17:34;;;;;;;33.30;16.40;;;;;;;2.54;84.43;99378.54;126709;1280;99172;-74
2022/11/23 06:20:40;;;;;;;33.70;17.10;;;;;;;2.51;84.29;99379.84;126896;1304;99074;-76
2022/11/23 06:23:42;;;;;;;40.00;17.50;;;;;;;2.44;84.20;99387.40;126690;1279;99166;-75
2022/11/23 06:26:45;;;;;;;39.80;18.10;;;;;;;2.43;84.15;99391.55;126581;1283;98776;-70
2022/11/23 06:29:48;;;;;;;30.40;15.20;;;;;;;2.44;84.27;99399.85;126571;1274;98109;-71
2022/11/23 06:32:51;;;;;;;34.00;16.40;;;;;;;2.47;84.27;99399.09;126558;1280;98040;-71
2022/11/23 06:35:55;;;;;;;29.10;15.50;;;;;;;2.49;84.35;99406.64;126659;1284;98866;-74
2022/11/23 06:38:59;;;;;;;33.20;15.90;;;;;;;2.52;84.30;99406.88;126738;1278;97996;-71
2022/11/23 06:42:02;;;;;;;29.20;14.30;;;;;;;2.55;84.25;99405.48;126468;1274;98644;-69
2022/11/23 06:45:08;;;;;;;31.40;15.50;;;;;;;2.52;84.26;99407.94;126591;1279;98354;-71
2022/11/23 06:48:12;;;;;;;31.90;14.90;;;;;;;2.49;84.16;99411.23;126574;1290;97988;-70
2022/11/23 06:51:19;;;;;;;29.70;14.60;;;;;;;2.46;84.02;99409.56;126695;1298;98028;-70
2022/11/23 06:54:23;;;;;;;30.20;14.80;;;;;;;2.40;84.03;99408.06;126446;1281;97973;-70
2022/11/23 06:57:27;;;;;;;32.90;17.10;;;;;;;2.35;84.02;99413.86;126506;1280;98018;-70
2022/11/23 07:00:30;;;;;;;27.60;13.20;;;;;;;2.35;84.21;99418.27;126437;1280;98102;-70
2022/11/23 07:03:34;;;;;;;30.40;14.50;;;;;;;2.39;84.24;99420.77;126585;1274;99039;-71
2022/11/23 07:06:41;;;;;;;30.20;14.90;;;;;;;2.43;84.12;99417.37;126678;1278;98011;-71
2022/11/23 07:09:49;;;;;;;30.10;14.30;;;;;;;2.47;84.21;99419.27;126650;1274;98079;-70
2022/11/23 07:13:18;;;;;;;32.90;15.80;;;;;;;2.51;84.19;99412.77;126426;1274;98010;-70
2022/11/23 07:16:20;;;;;;;29.80;15.10;;;;;;;2.55;84.10;99414.77;126568;1284;99353;-71
2022/11/23 07:19:25;;;;;;;32.80;15.90;;;;;;;2.55;83.85;99414.42;126685;1281;98053;-70
2022/11/23 07:22:30;;;;;;;33.40;16.40;;;;;;;2.52;84.02;99414.11;126416;1278;98046;-71
2022/11/23 07:25:35;;;;;;;34.00;16.30;;;;;;;2.50;83.90;99412.68;126426;1285;99261;-71
2022/11/23 07:28:38;;;;;;;30.60;15.30;;;;;;;2.51;84.00;99417.21;126618;1282;98118;-71
2022/11/23 07:31:42;;;;;;;31.20;14.40;;;;;;;2.54;84.17;99415.89;126815;1288;98554;-70
2022/11/23 07:34:44;;;;;;;31.30;15.50;;;;;;;2.60;84.01;99415.62;126558;1281;98079;-70
2022/11/23 07:37:49;;;;;;;28.30;15.00;;;;;;;2.63;84.09;99420.70;126624;1280;98444;-70
2022/11/23 07:40:51;;;;;;;29.60;15.50;;;;;;;2.64;84.13;99421.26;126594;1278;99132;-71
2022/11/23 07:44:05;;;;;;;29.40;14.60;;;;;;;2.67;84.03;99423.48;126680;1284;98100;-70
2022/11/23 07:47:08;;;;;;;26.80;14.10;;;;;;;2.67;83.91;99422.76;126586;1274;98335;-69
2022/11/23 07:50:12;;;;;;;34.70;16.70;;;;;;;2.64;83.86;99425.80;126751;1277;99150;-71
2022/11/23 07:53:15;;;;;;;33.30;15.60;;;;;;;2.63;83.70;99427.67;126819;1280;97987;-71
2022/11/23 07:56:17;;;;;;;29.60;15.30;;;;;;;2.61;83.91;99429.02;126834;1279;99063;-70
2022/11/23 07:59:20;;;;;;;33.40;15.70;;;;;;;2.67;84.00;99434.77;126571;1273;98041;-71
2022/11/23 08:02:23;;;;;;;32.50;15.60;;;;;;;2.74;84.00;99437.83;126435;1281;98295;-70
2022/11/23 08:05:26;;;;;;;32.10;16.30;;;;;;;2.79;83.98;99441.73;126494;1280;98753;-73
2022/11/23 08:08:29;;;;;;;29.20;14.80;;;;;;;2.80;83.87;99444.29;126404;1274;98009;-73
2022/11/23 08:11:32;;;;;;;27.80;13.60;;;;;;;2.76;83.41;99443.66;126760;1266;98050;-71
2022/11/23 08:14:34;;;;;;;30.60;15.60;;;;;;;2.72;83.56;99450.10;126727;1288;99261;-72
2022/11/23 08:17:37;;;;;;;34.70;16.10;;;;;;;2.68;83.60;99445.69;126640;1274;98078;-71
2022/11/23 08:20:40;;;;;;;32.50;16.30;;;;;;;2.66;83.63;99447.91;126604;1284;98552;-71
2022/11/23 08:23:44;;;;;;;35.10;18.80;;;;;;;2.67;83.46;99443.63;126486;1283;99192;-70
2022/11/23 08:26:48;;;;;;;29.40;14.80;;;;;;;2.70;83.68;99445.00;126636;1289;98773;-70
2022/11/23 08:29:51;;;;;;;33.50;16.70;;;;;;;2.75;83.63;99444.58;126724;1282;97993;-72
2022/11/23 08:32:54;;;;;;;33.20;15.70;;;;;;;2.81;83.64;99449.40;126653;1281;98081;-71
2022/11/23 08:35:56;;;;;;;31.20;15.40;;;;;;;2.85;83.49;99450.88;126366;1288;98783;-70
2022/11/23 08:38:59;;;;;;;30.00;15.50;;;;;;;2.90;83.44;99453.29;126464;1280;98085;-69
2022/11/23 08:42:02;;;;;;;30.10;16.20;;;;;;;2.94;83.27;99451.39;126677;1278;98916;-71
2022/11/23 08:45:08;;;;;;;32.20;15.70;;;;;;;2.92;83.11;99451.50;126506;1273;99081;-70
2022/11/23 08:48:11;;;;;;;31.00;16.90;;;;;;;2.88;83.17;99458.49;126447;1296;98029;-71
2022/11/23 08:51:14;;;;;;;28.90;15.30;;;;;;;2.87;83.01;99457.73;126762;1280;98004;-71
2022/11/23 08:54:16;;;;;;;29.90;15.40;;;;;;;2.87;82.88;99453.66;126695;1281;98043;-70
2022/11/23 08:57:19;;;;;;;26.20;13.40;;;;;;;2.91;83.06;99454.95;126520;1274;99161;-71
2022/11/23 09:00:23;;;;;;;31.50;15.70;;;;;;;2.95;83.23;99452.98;126624;1272;99189;-71
2022/11/23 09:03:26;;;;;;;29.50;15.10;;;;;;;3.01;83.24;99449.56;126632;1274;97992;-70
2022/11/23 09:06:32;;;;;;;28.80;15.90;;;;;;;3.08;82.94;99448.45;126684;1274;99137;-71
2022/11/23 09:09:35;;;;;;;29.00;16.10;;;;;;;3.11;83.01;99444.32;126643;1278;97994;-70
2022/11/23 09:12:38;;;;;;;31.00;16.90;;;;;;;3.18;82.78;99446.95;126524;1279;99173;-71
2022/11/23 09:15:40;;;;;;;27.00;15.10;;;;;;;3.20;82.74;99448.57;126395;1284;100250;-70
2022/11/23 09:18:43;;;;;;;28.60;15.70;;;;;;;3.22;82.87;99450.00;126404;1274;98063;-71
2022/11/23 09:21:46;;;;;;;29.20;15.30;;;;;;;3.23;82.79;99449.34;126460;1288;97990;-71
2022/11/23 09:24:49;;;;;;;30.00;15.80;;;;;;;3.26;83.08;99447.35;126389;1288;97988;-70
2022/11/23 09:27:57;;;;;;;30.20;16.20;;;;;;;3.28;82.83;99442.06;126476;1284;98459;-70
2022/11/23 09:31:03;;;;;;;25.60;13.30;;;;;;;3.30;82.86;99438.54;126503;1281;98657;-68
2022/11/23 09:34:06;;;;;;;30.30;16.30;;;;;;;3.37;82.91;99433.42;126501;1274;99131;-70
2022/11/23 09:37:08;;;;;;;38.60;18.30;;;;;;;3.47;82.99;99431.00;126390;1287;98015;-69
2022/11/23 09:40:15;;;;;;;33.60;17.60;;;;;;;3.54;82.77;99426.73;126477;1278;98008;-69
2022/11/23 09:43:37;;;;;;;34.30;17.30;;;;;;;3.58;82.82;99423.96;126701;1281;99167;-72
2022/11/23 09:46:54;;;;;;;37.10;18.10;;;;;;;3.64;82.72;99417.33;126503;1296;98030;-71
2022/11/23 09:50:03;;;;;;;30.80;16.30;;;;;;;3.74;82.66;99416.08;126558;1288;99147;-70
2022/11/23 09:53:12;;;;;;;29.80;16.70;;;;;;;3.84;82.68;99419.67;126672;1282;98052;-71
2022/11/23 09:56:19;;;;;;;29.80;16.40;;;;;;;3.90;82.42;99421.38;126687;1288;98007;-71
2022/11/23 09:59:34;;;;;;;32.60;18.50;;;;;;;3.93;82.27;99420.10;126536;1287;99033;-71
2022/11/23 10:02:40;;;;;;;30.90;16.70;;;;;;;3.92;82.05;99420.35;126474;1281;98754;-71
2022/11/23 10:05:52;;;;;;;28.10;15.10;;;;;;;3.90;82.05;99416.27;126726;1281;98008;-70
2022/11/23 10:09:10;;;;;;;32.40;17.30;;;;;;;4.00;82.30;99413.50;126722;1274;99055;-71
2022/11/23 10:12:34;;;;;;;26.00;14.80;;;;;;;4.18;82.23;99415.52;126496;1274;99056;-71
2022/11/23 10:15:44;;;;;;;30.20;16.50;;;;;;;4.31;81.98;99406.23;126476;1286;98073;-72
2022/11/23 10:18:56;;;;;;;33.70;19.00;;;;;;;4.42;81.83;99400.57;126669;1281;98019;-71
2022/11/23 10:22:08;;;;;;;32.50;18.30;;;;;;;4.48;81.66;99394.23;126586;1274;98433;-70
2022/11/23 10:25:15;;;;;;;39.90;21.60;;;;;;;4.51;81.54;99387.95;126624;1281;98015;-71
2022/11/23 10:28:20;;;;;;;34.60;19.10;;;;;;;4.48;81.49;99385.23;126497;1288;98013;-69
2022/11/23 10:31:24;;;;;;;41.20;22.70;;;;;;;4.38;81.30;99375.56;126447;1288;99149;-70
2022/11/23 10:34:46;;;;;;;34.60;19.40;;;;;;;4.31;81.49;99378.98;126610;1281;98003;-70
2022/11/23 10:37:48;;;;;;;30.60;17.60;;;;;;;4.22;81.29;99381.55;126756;1288;98676;-70
2022/11/23 10:41:00;;;;;;;31.00;18.10;;;;;;;4.13;81.31;99388.52;126608;1282;99144;-71
2022/11/23 10:44:11;;;;;;;33.30;18.40;;;;;;;4.04;81.58;99388.54;126628;1281;98638;-71
2022/11/23 10:47:33;;;;;;;40.30;21.10;;;;;;;3.95;81.54;99378.39;126522;1278;98479;-70
2022/11/23 10:50:39;;;;;;;38.90;20.30;;;;;;;3.91;81.51;99372.98;126710;1274;98140;-70
2022/11/23 10:53:43;;;;;;;30.40;16.60;;;;;;;3.93;81.52;99365.21;126583;1282;98075;-71
2022/11/23 10:56:48;;;;;;;31.20;17.70;;;;;;;3.97;81.44;99364.86;126641;1280;97987;-71
2022/11/23 10:59:59;;;;;;;30.50;17.40;;;;;;;4.04;81.53;99371.36;126487;1281;99170;-71
2022/11/23 11:03:22;;;;;;;31.40;17.20;;;;;;;4.11;81.51;99369.30;126638;1297;98010;-67
2022/11/23 11:06:27;;;;;;;32.90;16.90;;;;;;;4.13;81.23;99375.98;126558;1288;98689;-71
2022/11/23 11:09:30;;;;;;;27.80;15.20;;;;;;;4.13;80.96;99375.64;126523;1288;98073;-71
2022/11/23 11:12:34;;;;;;;57.80;30.50;;;;;;;4.13;80.90;99380.04;126683;1290;98768;-71
2022/11/23 11:15:37;;;;;;;57.50;31.10;;;;;;;4.11;81.04;99376.48;126639;1281;99102;-70
2022/11/23 11:18:40;;;;;;;45.70;22.40;;;;;;;4.10;80.97;99377.63;126629;1280;98030;-71
2022/11/23 11:21:43;;;;;;;33.40;18.10;;;;;;;4.11;81.00;99379.54;126708;1282;98001;-70
2022/11/23 11:24:46;;;;;;;30.20;16.80;;;;;;;4.10;80.84;99386.65;126669;1278;98068;-71
2022/11/23 11:27:52;;;;;;;33.00;17.80;;;;;;;4.08;80.97;99384.66;126620;1275;98079;-71
2022/11/23 11:31:14;;;;;;;28.20;14.80;;;;;;;4.09;80.84;99381.23;126640;1288;99143;-70
2022/11/23 11:34:23;;;;;;;28.90;15.50;;;;;;;4.10;80.72;99372.02;126738;1282;98753;-70
2022/11/23 11:37:34;;;;;;;27.10;14.60;;;;;;;4.16;80.84;99368.55;126645;1287;98050;-71
2022/11/23 11:40:44;;;;;;;29.00;15.70;;;;;;;4.19;80.70;99365.11;126641;1274;97991;-71
2022/11/23 11:43:49;;;;;;;29.50;16.00;;;;;;;4.18;80.71;99367.14;126585;1282;99046;-71
2022/11/23 11:46:59;;;;;;;30.10;17.10;;;;;;;4.15;80.60;99369.86;126634;1288;98775;-71
2022/11/23 11:50:14;;;;;;;28.60;16.40;;;;;;;4.11;80.77;99376.13;126502;1277;98027;-71
2022/11/23 11:53:21;;;;;;;32.60;17.70;;;;;;;4.10;80.59;99372.86;126591;1274;99128;-71
2022/11/23 11:56:29;;;;;;;31.70;17.70;;;;;;;4.04;80.72;99371.64;126659;1291;99190;-70
2022/11/23 11:59:41;;;;;;;29.80;17.20;;;;;;;4.01;80.59;99383.50;126730;1280;98002;-71
2022/11/23 12:03:00;;;;;;;25.70;15.00;;;;;;;3.98;80.74;99375.84;126575;1288;98016;-71
2022/11/23 12:06:07;;;;;;;29.30;16.20;;;;;;;3.96;80.29;99377.88;126448;1282;98076;-71
2022/11/23 12:09:15;;;;;;;29.70;16.20;;;;;;;3.92;80.46;99380.07;126459;1280;99760;-71
2022/11/23 12:12:20;;;;;;;29.70;15.80;;;;;;;3.87;80.43;99387.69;126414;1297;99275;-70
2022/11/23 12:15:39;;;;;;;25.00;13.70;;;;;;;3.83;80.52;99390.86;126438;1287;99170;-70
2022/11/23 12:18:55;;;;;;;30.10;16.60;;;;;;;3.83;80.49;99383.67;126586;1297;98015;-71
2022/11/23 12:22:26;;;;;;;30.10;17.00;;;;;;;3.84;80.51;99376.54;126509;1288;98010;-71
2022/11/23 12:25:35;;;;;;;30.10;17.90;;;;;;;3.87;80.44;99383.86;126626;1287;98979;-71
2022/11/23 12:28:56;;;;;;;32.40;18.80;;;;;;;3.82;80.12;99376.52;126884;1283;99163;-71
2022/11/23 12:32:09;;;;;;;34.00;18.70;;;;;;;3.77;80.34;99373.85;126679;1281;98077;-70
2022/11/23 12:35:30;;;;;;;29.70;17.10;;;;;;;3.70;80.34;99374.52;126599;1282;99024;-72
2022/11/23 12:38:43;;;;;;;30.70;17.50;;;;;;;3.67;80.42;99366.77;126580;1276;99166;-71
2022/11/23 12:41:53;;;;;;;34.90;19.70;;;;;;;3.64;80.39;99369.48;126433;1280;99055;-71
2022/11/23 12:45:22;;;;;;;34.70;18.60;;;;;;;3.61;80.44;99364.45;126461;1286;99030;-71
2022/11/23 12:48:46;;;;;;;35.60;18.70;;;;;;;3.58;80.52;99352.55;126612;1281;98127;-70
2022/11/23 12:52:00;;;;;;;39.80;19.80;;;;;;;3.58;80.49;99341.67;126527;1287;99135;-71
2022/11/23 12:55:21;;;;;;;35.50;18.40;;;;;;;3.58;80.39;99338.98;126703;1281;99061;-70
2022/11/23 12:58:27;;;;;;;38.20;19.70;;;;;;;3.61;80.29;99338.27;126587;1281;98661;-70
2022/11/23 13:01:34;;;;;;;39.70;21.30;;;;;;;3.62;80.35;99341.28;126498;1280;99046;-70
2022/11/23 13:04:58;;;;;;;38.30;19.30;;;;;;;3.64;80.38;99339.36;127091;1280;97977;-71
2022/11/23 13:08:27;;;;;;;46.60;24.40;;;;;;;3.65;80.16;99344.39;126765;1280;97983;-70
2022/11/23 13:11:47;;;;;;;69.40;34.50;;;;;;;3.65;80.25;99343.55;126396;1281;98068;-70
2022/11/23 13:15:02;;;;;;;46.10;22.40;;;;;;;3.63;80.09;99342.83;126436;1282;98307;-71
2022/11/23 13:18:14;;;;;;;47.00;22.90;;;;;;;3.55;80.12;99341.20;126470;1288;98121;-71
2022/11/23 13:21:20;;;;;;;;;;;;;;;3.48;80.08;99342.64;126425;1287;98421;-70
2022/11/23 13:24:33;;;;;;;43.40;20.70;;;;;;;3.42;80.12;99344.08;126475;1288;99033;-70
2022/11/23 13:27:54;;;;;;;44.70;22.80;;;;;;;3.38;80.19;99351.94;126526;1282;98008;-71
2022/11/23 13:31:24;;;;;;;39.20;20.20;;;;;;;3.32;80.06;99358.45;126442;1281;98743;-70
2022/11/23 13:34:46;;;;;;;41.10;20.10;;;;;;;3.27;80.23;99371.70;126604;1280;98413;-70
2022/11/23 13:38:17;;;;;;;37.50;18.60;;;;;;;3.27;80.08;99369.77;126718;1282;101412;-71
2022/11/23 13:41:56;;;;;;;41.60;21.20;;;;;;;3.27;80.25;99368.37;126505;1282;99237;-72
2022/11/23 13:45:23;;;;;;;39.50;21.00;;;;;;;3.32;80.13;99368.78;126612;1281;98078;-70
2022/11/23 13:48:26;;;;;;;39.80;20.50;;;;;;;3.33;80.09;99366.27;126555;1288;97965;-70
2022/11/23 13:51:31;;;;;;;44.60;23.40;;;;;;;3.30;80.16;99360.70;126541;1282;98360;-71
2022/11/23 13:54:36;;;;;;;44.90;25.40;;;;;;;3.29;80.02;99359.92;126556;1287;98066;-70
2022/11/23 13:57:40;;;;;;;48.40;26.00;;;;;;;3.29;80.12;99369.44;126415;1287;97981;-71
2022/11/23 14:00:47;;;;;;;42.50;23.10;;;;;;;3.27;80.11;99369.20;126516;1287;99155;-71
2022/11/23 14:03:54;;;;;;;41.60;22.70;;;;;;;3.22;80.13;99378.41;126521;1288;98001;-70
2022/11/23 14:07:01;;;;;;;45.30;24.90;;;;;;;3.17;80.10;99378.67;126654;1281;98092;-71
2022/11/23 14:10:14;;;;;;;40.00;21.60;;;;;;;3.13;80.09;99373.73;126865;1287;97981;-71
2022/11/23 14:13:22;;;;;;;35.70;18.30;;;;;;;3.08;80.14;99371.45;126756;1282;98049;-70
2022/11/23 14:16:56;;;;;;;29.60;15.90;;;;;;;3.06;80.23;99370.44;126670;1287;99099;-71
2022/11/23 14:20:19;;;;;;;40.20;20.70;;;;;;;3.09;80.26;99372.59;126535;1286;98778;-73